sensor_id;sensor_type;location;lat;lon;timestamp;pressure;altitude;pressure_sealevel;temperature;humidity
6833;BME280;3454;42.654;23.378;2022-12-07T00:00:15;94449.13;;;6.65;100.00
6833;BME280;3454;42.654;23.378;2022-12-07T00:02:40;94449.00;;;6.67;100.00
6833;BME280;3454;42.654;23.378;2022-12-07T00:05:05;94443.16;;;6.66;100.00
6833;BME280;3454;42.654;23.378;2022-12-07T00:07:31;94463.69;;;6.73;100.00
6833;BME280;3454;42.654;23.378;2022-12-07T00:09:56;94447.97;;;6.58;100.00
6833;BME280;3454;42.654;23.378;2022-12-07T00:12:21;94452.34;;;6.67;100.00
6833;BME280;3454;42.654;23.378;2022-12-07T00:14:46;94440.22;;;6.49;100.00
6833;BME280;3454;42.654;23.378;2022-12-07T00:17:11;94432.28;;;6.42;100.00
6833;BME280;3454;42.654;23.378;2022-12-07T00:19:37;94436.56;;;6.42;100.00
6833;BME280;3454;42.654;23.378;2022-12-07T00:22:02;94437.47;;;6.41;100.00
6833;BME280;3454;42.654;23.378;2022-12-07T00:24:27;94425.34;;;6.22;100.00
6833;BME280;3454;42.654;23.378;2022-12-07T00:26:53;94433.16;;;6.19;100.00
6833;BME280;3454;42.654;23.378;2022-12-07T00:29:19;94424.44;;;6.23;100.00
6833;BME280;3454;42.654;23.378;2022-12-07T00:31:44;94418.19;;;6.05;100.00
6833;BME280;3454;42.654;23.378;2022-12-07T00:34:15;94416.47;;;6.06;100.00
6833;BME280;3454;42.654;23.378;2022-12-07T00:36:41;94425.25;;;6.00;100.00
6833;BME280;3454;42.654;23.378;2022-12-07T00:39:06;94437.38;;;6.19;100.00
6833;BME280;3454;42.654;23.378;2022-12-07T00:41:31;94437.38;;;6.19;100.00
6833;BME280;3454;42.654;23.378;2022-12-07T00:43:56;94439.16;;;6.29;100.00
6833;BME280;3454;42.654;23.378;2022-12-07T00:46:22;94436.75;;;6.39;100.00
6833;BME280;3454;42.654;23.378;2022-12-07T00:48:48;94445.44;;;6.58;100.00
6833;BME280;3454;42.654;23.378;2022-12-07T00:51:14;94458.78;;;6.71;100.00
6833;BME280;3454;42.654;23.378;2022-12-07T00:53:39;94437.63;;;6.61;100.00
6833;BME280;3454;42.654;23.378;2022-12-07T00:56:15;94433.72;;;6.57;100.00
6833;BME280;3454;42.654;23.378;2022-12-07T00:58:41;94430.63;;;6.54;100.00
6833;BME280;3454;42.654;23.378;2022-12-07T01:01:07;94417.88;;;6.55;100.00
6833;BME280;3454;42.654;23.378;2022-12-07T01:03:33;94419.16;;;6.61;100.00
6833;BME280;3454;42.654;23.378;2022-12-07T01:05:58;94420.66;;;6.63;100.00
6833;BME280;3454;42.654;23.378;2022-12-07T01:08:24;94437.09;;;6.80;100.00
6833;BME280;3454;42.654;23.378;2022-12-07T01:10:56;94456.28;;;6.94;100.00
6833;BME280;3454;42.654;23.378;2022-12-07T01:13:22;94440.31;;;6.82;100.00
6833;BME280;3454;42.654;23.378;2022-12-07T01:15:47;94456.53;;;7.02;100.00
6833;BME280;3454;42.654;23.378;2022-12-07T01:18:13;94434.31;;;6.83;100.00
6833;BME280;3454;42.654;23.378;2022-12-07T01:20:38;94421.94;;;6.80;100.00
6833;BME280;3454;42.654;23.378;2022-12-07T01:23:03;94444.22;;;6.97;100.00
6833;BME280;3454;42.654;23.378;2022-12-07T01:25:29;94450.22;;;6.96;100.00
6833;BME280;3454;42.654;23.378;2022-12-07T01:27:54;94443.31;;;6.98;100.00
6833;BME280;3454;42.654;23.378;2022-12-07T01:30:19;94425.97;;;6.83;100.00
6833;BME280;3454;42.654;23.378;2022-12-07T01:32:44;94424.00;;;6.86;100.00
6833;BME280;3454;42.654;23.378;2022-12-07T01:35:10;94418.94;;;6.75;100.00
6833;BME280;3454;42.654;23.378;2022-12-07T01:37:35;94431.94;;;6.93;100.00
6833;BME280;3454;42.654;23.378;2022-12-07T01:40:01;94430.78;;;6.86;100.00
6833;BME280;3454;42.654;23.378;2022-12-07T01:42:28;94414.94;;;6.72;100.00
6833;BME280;3454;42.654;23.378;2022-12-07T01:47:37;94432.72;;;6.71;100.00
6833;BME280;3454;42.654;23.378;2022-12-07T01:50:03;94430.22;;;6.82;100.00
6833;BME280;3454;42.654;23.378;2022-12-07T01:52:29;94441.47;;;6.89;100.00
6833;BME280;3454;42.654;23.378;2022-12-07T01:54:57;94413.56;;;6.79;100.00
6833;BME280;3454;42.654;23.378;2022-12-07T01:57:24;94427.69;;;6.93;100.00
6833;BME280;3454;42.654;23.378;2022-12-07T01:59:51;94431.25;;;6.91;100.00
6833;BME280;3454;42.654;23.378;2022-12-07T02:02:22;94421.03;;;6.92;100.00
6833;BME280;3454;42.654;23.378;2022-12-07T02:04:48;94415.63;;;6.86;100.00
6833;BME280;3454;42.654;23.378;2022-12-07T02:07:14;94406.66;;;6.82;100.00
6833;BME280;3454;42.654;23.378;2022-12-07T02:09:39;94424.13;;;6.96;100.00
6833;BME280;3454;42.654;23.378;2022-12-07T02:12:05;94415.28;;;6.90;100.00
6833;BME280;3454;42.654;23.378;2022-12-07T02:14:31;94396.22;;;6.86;100.00
6833;BME280;3454;42.654;23.378;2022-12-07T02:22:01;94365.28;;;6.38;100.00
6833;BME280;3454;42.654;23.378;2022-12-07T02:30:11;94393.47;;;6.78;100.00
6833;BME280;3454;42.654;23.378;2022-12-07T02:35:07;94384.50;;;6.85;100.00
6833;BME280;3454;42.654;23.378;2022-12-07T02:37:35;94409.19;;;7.04;100.00
6833;BME280;3454;42.654;23.378;2022-12-07T02:42:32;94382.34;;;6.81;100.00
6833;BME280;3454;42.654;23.378;2022-12-07T02:44:59;94372.44;;;6.77;100.00
6833;BME280;3454;42.654;23.378;2022-12-07T02:47:25;94373.25;;;6.78;100.00
6833;BME280;3454;42.654;23.378;2022-12-07T02:49:51;94354.44;;;6.14;100.00
6833;BME280;3454;42.654;23.378;2022-12-07T02:52:17;94362.94;;;6.24;100.00
6833;BME280;3454;42.654;23.378;2022-12-07T02:54:42;94374.50;;;6.50;100.00
6833;BME280;3454;42.654;23.378;2022-12-07T02:57:14;94381.72;;;6.55;100.00
6833;BME280;3454;42.654;23.378;2022-12-07T02:59:59;94378.53;;;6.64;100.00
6833;BME280;3454;42.654;23.378;2022-12-07T03:10:05;94350.38;;;6.35;100.00
6833;BME280;3454;42.654;23.378;2022-12-07T03:12:35;94344.50;;;6.24;100.00
6833;BME280;3454;42.654;23.378;2022-12-07T03:15:05;94335.19;;;6.24;100.00
6833;BME280;3454;42.654;23.378;2022-12-07T03:17:33;94338.41;;;6.26;100.00
6833;BME280;3454;42.654;23.378;2022-12-07T03:20:00;94355.16;;;6.38;100.00
6833;BME280;3454;42.654;23.378;2022-12-07T03:22:27;94344.53;;;6.46;100.00
6833;BME280;3454;42.654;23.378;2022-12-07T03:24:55;94351.53;;;6.53;100.00
6833;BME280;3454;42.654;23.378;2022-12-07T03:28:05;94357.28;;;6.55;100.00
6833;BME280;3454;42.654;23.378;2022-12-07T03:30:12;94360.72;;;6.54;100.00
6833;BME280;3454;42.654;23.378;2022-12-07T03:32:43;94373.84;;;6.70;100.00
6833;BME280;3454;42.654;23.378;2022-12-07T03:37:39;94359.69;;;6.57;100.00
6833;BME280;3454;42.654;23.378;2022-12-07T03:40:13;94352.81;;;6.48;100.00
6833;BME280;3454;42.654;23.378;2022-12-07T03:42:41;94344.59;;;6.22;100.00
6833;BME280;3454;42.654;23.378;2022-12-07T03:45:06;94348.19;;;5.96;100.00
6833;BME280;3454;42.654;23.378;2022-12-07T03:50:22;94342.41;;;6.18;100.00
6833;BME280;3454;42.654;23.378;2022-12-07T03:52:54;94354.03;;;6.31;100.00
6833;BME280;3454;42.654;23.378;2022-12-07T03:55:27;94352.44;;;6.41;100.00
6833;BME280;3454;42.654;23.378;2022-12-07T03:57:54;94348.28;;;6.40;100.00
6833;BME280;3454;42.654;23.378;2022-12-07T04:00:21;94347.97;;;6.45;100.00
6833;BME280;3454;42.654;23.378;2022-12-07T04:02:46;94346.00;;;6.37;100.00
6833;BME280;3454;42.654;23.378;2022-12-07T04:05:12;94346.03;;;6.48;100.00
6833;BME280;3454;42.654;23.378;2022-12-07T04:07:37;94357.53;;;6.52;100.00
6833;BME280;3454;42.654;23.378;2022-12-07T04:10:03;94350.28;;;6.48;100.00
6833;BME280;3454;42.654;23.378;2022-12-07T04:12:28;94355.78;;;6.53;100.00
6833;BME280;3454;42.654;23.378;2022-12-07T04:14:54;94353.84;;;6.56;100.00
6833;BME280;3454;42.654;23.378;2022-12-07T04:17:19;94357.59;;;6.51;100.00
6833;BME280;3454;42.654;23.378;2022-12-07T04:19:44;94349.13;;;6.52;100.00
6833;BME280;3454;42.654;23.378;2022-12-07T04:22:09;94364.19;;;6.64;100.00
6833;BME280;3454;42.654;23.378;2022-12-07T04:24:35;94363.50;;;6.62;100.00
6833;BME280;3454;42.654;23.378;2022-12-07T04:27:00;94356.72;;;6.52;100.00
6833;BME280;3454;42.654;23.378;2022-12-07T04:29:25;94339.47;;;6.35;100.00
6833;BME280;3454;42.654;23.378;2022-12-07T04:31:51;94343.25;;;6.40;100.00
6833;BME280;3454;42.654;23.378;2022-12-07T04:34:17;94341.41;;;6.42;100.00
6833;BME280;3454;42.654;23.378;2022-12-07T04:36:43;94343.00;;;6.32;100.00
6833;BME280;3454;42.654;23.378;2022-12-07T04:39:13;94338.66;;;6.34;100.00
6833;BME280;3454;42.654;23.378;2022-12-07T04:41:42;94348.53;;;6.37;100.00
6833;BME280;3454;42.654;23.378;2022-12-07T04:44:08;94354.47;;;6.36;100.00
6833;BME280;3454;42.654;23.378;2022-12-07T04:46:33;94363.44;;;6.40;100.00
6833;BME280;3454;42.654;23.378;2022-12-07T04:48:58;94351.94;;;6.25;100.00
6833;BME280;3454;42.654;23.378;2022-12-07T04:51:25;94346.09;;;6.25;100.00
6833;BME280;3454;42.654;23.378;2022-12-07T04:53:50;94347.91;;;6.12;100.00
6833;BME280;3454;42.654;23.378;2022-12-07T04:56:16;94343.44;;;6.15;100.00
6833;BME280;3454;42.654;23.378;2022-12-07T04:58:42;94345.38;;;6.12;100.00
6833;BME280;3454;42.654;23.378;2022-12-07T05:01:08;94350.56;;;6.21;100.00
6833;BME280;3454;42.654;23.378;2022-12-07T05:03:33;94351.03;;;6.26;100.00
6833;BME280;3454;42.654;23.378;2022-12-07T05:05:58;94355.03;;;6.29;100.00
6833;BME280;3454;42.654;23.378;2022-12-07T05:08:24;94355.63;;;6.32;100.00
6833;BME280;3454;42.654;23.378;2022-12-07T05:10:49;94371.38;;;6.36;100.00
6833;BME280;3454;42.654;23.378;2022-12-07T05:13:15;94365.38;;;6.37;100.00
6833;BME280;3454;42.654;23.378;2022-12-07T05:15:40;94343.84;;;5.74;100.00
6833;BME280;3454;42.654;23.378;2022-12-07T05:18:06;94343.03;;;5.74;100.00
6833;BME280;3454;42.654;23.378;2022-12-07T05:20:31;94350.78;;;5.60;100.00
6833;BME280;3454;42.654;23.378;2022-12-07T05:22:57;94349.06;;;5.60;100.00
6833;BME280;3454;42.654;23.378;2022-12-07T05:25:23;94353.72;;;6.01;100.00
6833;BME280;3454;42.654;23.378;2022-12-07T05:27:48;94352.56;;;6.40;100.00
6833;BME280;3454;42.654;23.378;2022-12-07T05:30:14;94365.63;;;6.45;100.00
6833;BME280;3454;42.654;23.378;2022-12-07T05:32:39;94380.44;;;6.49;100.00
6833;BME280;3454;42.654;23.378;2022-12-07T05:35:05;94380.91;;;6.43;100.00
6833;BME280;3454;42.654;23.378;2022-12-07T05:37:31;94372.78;;;6.16;100.00
6833;BME280;3454;42.654;23.378;2022-12-07T05:39:56;94370.88;;;6.20;100.00
6833;BME280;3454;42.654;23.378;2022-12-07T05:42:21;94386.44;;;6.48;100.00
6833;BME280;3454;42.654;23.378;2022-12-07T05:44:47;94365.50;;;6.35;100.00
6833;BME280;3454;42.654;23.378;2022-12-07T05:47:13;94365.84;;;6.31;100.00
6833;BME280;3454;42.654;23.378;2022-12-07T05:49:39;94366.84;;;6.28;100.00
6833;BME280;3454;42.654;23.378;2022-12-07T05:52:04;94359.72;;;6.11;100.00
6833;BME280;3454;42.654;23.378;2022-12-07T05:54:29;94344.31;;;6.03;100.00
6833;BME280;3454;42.654;23.378;2022-12-07T05:56:55;94366.53;;;6.33;100.00
6833;BME280;3454;42.654;23.378;2022-12-07T05:59:20;94357.19;;;6.22;100.00
6833;BME280;3454;42.654;23.378;2022-12-07T06:01:58;94342.94;;;5.99;100.00
6833;BME280;3454;42.654;23.378;2022-12-07T06:04:25;94337.47;;;5.81;100.00
6833;BME280;3454;42.654;23.378;2022-12-07T06:06:51;94353.03;;;5.99;100.00
6833;BME280;3454;42.654;23.378;2022-12-07T06:09:16;94350.06;;;6.05;100.00
6833;BME280;3454;42.654;23.378;2022-12-07T06:11:43;94356.63;;;6.08;100.00
6833;BME280;3454;42.654;23.378;2022-12-07T06:14:27;94342.38;;;6.07;100.00
6833;BME280;3454;42.654;23.378;2022-12-07T06:16:53;94344.44;;;6.02;100.00
6833;BME280;3454;42.654;23.378;2022-12-07T06:19:18;94349.63;;;6.11;100.00
6833;BME280;3454;42.654;23.378;2022-12-07T06:21:43;94360.78;;;6.20;100.00
6833;BME280;3454;42.654;23.378;2022-12-07T06:24:10;94365.59;;;6.23;100.00
6833;BME280;3454;42.654;23.378;2022-12-07T06:26:35;94369.88;;;6.33;100.00
6833;BME280;3454;42.654;23.378;2022-12-07T06:29:01;94372.16;;;6.36;100.00
6833;BME280;3454;42.654;23.378;2022-12-07T06:31:26;94367.59;;;6.41;100.00
6833;BME280;3454;42.654;23.378;2022-12-07T06:33:51;94384.00;;;6.47;100.00
6833;BME280;3454;42.654;23.378;2022-12-07T06:36:17;94392.09;;;6.74;100.00
6833;BME280;3454;42.654;23.378;2022-12-07T06:38:42;94399.66;;;6.74;100.00
6833;BME280;3454;42.654;23.378;2022-12-07T06:41:07;94387.59;;;6.66;100.00
6833;BME280;3454;42.654;23.378;2022-12-07T06:43:33;94376.13;;;6.62;100.00
6833;BME280;3454;42.654;23.378;2022-12-07T06:45:58;94379.34;;;6.75;100.00
6833;BME280;3454;42.654;23.378;2022-12-07T06:48:24;94386.00;;;6.76;100.00
6833;BME280;3454;42.654;23.378;2022-12-07T06:50:49;94378.84;;;6.59;100.00
6833;BME280;3454;42.654;23.378;2022-12-07T06:53:14;94371.13;;;6.39;100.00
6833;BME280;3454;42.654;23.378;2022-12-07T06:55:39;94351.94;;;6.25;100.00
6833;BME280;3454;42.654;23.378;2022-12-07T06:58:05;94359.97;;;6.30;100.00
6833;BME280;3454;42.654;23.378;2022-12-07T07:00:30;94370.50;;;6.24;100.00
6833;BME280;3454;42.654;23.378;2022-12-07T07:02:56;94351.72;;;5.70;100.00
6833;BME280;3454;42.654;23.378;2022-12-07T07:05:21;94354.94;;;5.72;100.00
6833;BME280;3454;42.654;23.378;2022-12-07T07:07:47;94368.53;;;6.06;100.00
6833;BME280;3454;42.654;23.378;2022-12-07T07:10:13;94368.41;;;6.07;100.00
6833;BME280;3454;42.654;23.378;2022-12-07T07:12:38;94375.28;;;6.40;100.00
6833;BME280;3454;42.654;23.378;2022-12-07T07:15:03;94391.03;;;6.65;100.00
6833;BME280;3454;42.654;23.378;2022-12-07T07:17:29;94394.28;;;6.78;100.00
6833;BME280;3454;42.654;23.378;2022-12-07T07:19:54;94405.63;;;6.62;100.00
6833;BME280;3454;42.654;23.378;2022-12-07T07:22:19;94408.38;;;6.70;100.00
6833;BME280;3454;42.654;23.378;2022-12-07T07:24:45;94382.31;;;6.58;100.00
6833;BME280;3454;42.654;23.378;2022-12-07T07:27:10;94380.41;;;6.38;100.00
6833;BME280;3454;42.654;23.378;2022-12-07T07:29:35;94375.75;;;6.56;100.00
6833;BME280;3454;42.654;23.378;2022-12-07T07:32:00;94397.50;;;6.81;100.00
6833;BME280;3454;42.654;23.378;2022-12-07T07:34:26;94389.91;;;6.58;100.00
6833;BME280;3454;42.654;23.378;2022-12-07T07:36:51;94386.63;;;6.45;100.00
6833;BME280;3454;42.654;23.378;2022-12-07T07:39:16;94384.63;;;6.72;100.00
6833;BME280;3454;42.654;23.378;2022-12-07T07:41:42;94408.28;;;6.83;100.00
6833;BME280;3454;42.654;23.378;2022-12-07T07:44:07;94410.22;;;7.01;100.00
6833;BME280;3454;42.654;23.378;2022-12-07T07:46:32;94417.47;;;7.06;100.00
6833;BME280;3454;42.654;23.378;2022-12-07T07:48:58;94421.84;;;7.15;100.00
6833;BME280;3454;42.654;23.378;2022-12-07T07:51:23;94415.16;;;7.36;100.00
6833;BME280;3454;42.654;23.378;2022-12-07T07:53:48;94427.34;;;7.53;100.00
6833;BME280;3454;42.654;23.378;2022-12-07T07:56:13;94438.53;;;7.82;100.00
6833;BME280;3454;42.654;23.378;2022-12-07T07:58:39;94455.41;;;8.04;100.00
6833;BME280;3454;42.654;23.378;2022-12-07T08:01:05;94447.38;;;8.30;100.00
6833;BME280;3454;42.654;23.378;2022-12-07T08:03:30;94450.38;;;8.24;100.00
6833;BME280;3454;42.654;23.378;2022-12-07T08:05:55;94463.53;;;8.50;100.00
6833;BME280;3454;42.654;23.378;2022-12-07T08:08:21;94469.91;;;8.65;100.00
6833;BME280;3454;42.654;23.378;2022-12-07T08:10:46;94480.69;;;8.78;100.00
6833;BME280;3454;42.654;23.378;2022-12-07T08:13:17;94474.22;;;8.54;100.00
6833;BME280;3454;42.654;23.378;2022-12-07T08:15:49;94453.03;;;8.34;100.00
6833;BME280;3454;42.654;23.378;2022-12-07T08:18:15;94464.81;;;8.44;100.00
6833;BME280;3454;42.654;23.378;2022-12-07T08:20:40;94441.75;;;8.27;100.00
6833;BME280;3454;42.654;23.378;2022-12-07T08:23:06;94457.50;;;8.30;100.00
6833;BME280;3454;42.654;23.378;2022-12-07T08:25:32;94460.63;;;8.23;100.00
6833;BME280;3454;42.654;23.378;2022-12-07T08:27:57;94439.25;;;8.16;100.00
6833;BME280;3454;42.654;23.378;2022-12-07T08:30:23;94441.19;;;8.23;100.00
6833;BME280;3454;42.654;23.378;2022-12-07T08:32:49;94433.81;;;8.20;100.00
6833;BME280;3454;42.654;23.378;2022-12-07T08:35:33;94440.94;;;8.58;100.00
6833;BME280;3454;42.654;23.378;2022-12-07T08:37:59;94442.69;;;8.26;100.00
6833;BME280;3454;42.654;23.378;2022-12-07T08:40:27;94423.53;;;8.01;100.00
6833;BME280;3454;42.654;23.378;2022-12-07T08:42:53;94413.06;;;8.06;100.00
6833;BME280;3454;42.654;23.378;2022-12-07T08:45:19;94406.69;;;8.11;100.00
6833;BME280;3454;42.654;23.378;2022-12-07T08:47:52;94397.19;;;8.04;100.00
6833;BME280;3454;42.654;23.378;2022-12-07T08:50:19;94419.00;;;8.16;100.00
6833;BME280;3454;42.654;23.378;2022-12-07T08:52:49;94415.19;;;8.21;100.00
6833;BME280;3454;42.654;23.378;2022-12-07T08:55:16;94411.81;;;8.21;100.00
6833;BME280;3454;42.654;23.378;2022-12-07T08:57:41;94400.16;;;8.09;100.00
6833;BME280;3454;42.654;23.378;2022-12-07T09:00:08;94403.09;;;8.25;100.00
6833;BME280;3454;42.654;23.378;2022-12-07T09:02:34;94384.28;;;8.07;100.00
6833;BME280;3454;42.654;23.378;2022-12-07T09:05:00;94363.75;;;7.89;100.00
6833;BME280;3454;42.654;23.378;2022-12-07T09:07:25;94389.94;;;7.99;100.00
6833;BME280;3454;42.654;23.378;2022-12-07T09:09:51;94366.25;;;7.69;100.00
6833;BME280;3454;42.654;23.378;2022-12-07T09:12:16;94346.16;;;7.56;100.00
6833;BME280;3454;42.654;23.378;2022-12-07T09:14:42;94353.66;;;7.78;100.00
6833;BME280;3454;42.654;23.378;2022-12-07T09:17:09;94365.28;;;7.81;100.00
6833;BME280;3454;42.654;23.378;2022-12-07T09:19:35;94361.25;;;7.78;100.00
6833;BME280;3454;42.654;23.378;2022-12-07T09:22:01;94356.97;;;8.10;100.00
6833;BME280;3454;42.654;23.378;2022-12-07T09:24:26;94371.25;;;8.11;100.00
6833;BME280;3454;42.654;23.378;2022-12-07T09:26:52;94372.50;;;8.17;100.00
6833;BME280;3454;42.654;23.378;2022-12-07T09:29:17;94392.13;;;8.35;100.00
6833;BME280;3454;42.654;23.378;2022-12-07T09:31:42;94342.34;;;7.93;100.00
6833;BME280;3454;42.654;23.378;2022-12-07T09:34:08;94323.09;;;7.70;100.00
6833;BME280;3454;42.654;23.378;2022-12-07T09:36:33;94333.63;;;7.86;100.00
6833;BME280;3454;42.654;23.378;2022-12-07T09:38:59;94350.56;;;8.06;100.00
6833;BME280;3454;42.654;23.378;2022-12-07T09:41:26;94368.88;;;8.30;100.00
6833;BME280;3454;42.654;23.378;2022-12-07T09:44:03;94324.53;;;8.15;100.00
6833;BME280;3454;42.654;23.378;2022-12-07T09:46:34;94342.56;;;8.42;100.00
6833;BME280;3454;42.654;23.378;2022-12-07T09:49:00;94354.69;;;8.39;100.00
6833;BME280;3454;42.654;23.378;2022-12-07T09:51:26;94323.06;;;8.33;100.00
6833;BME280;3454;42.654;23.378;2022-12-07T09:53:53;94344.00;;;8.35;100.00
6833;BME280;3454;42.654;23.378;2022-12-07T09:56:20;94338.50;;;8.30;100.00
6833;BME280;3454;42.654;23.378;2022-12-07T09:58:47;94347.97;;;8.59;100.00
6833;BME280;3454;42.654;23.378;2022-12-07T10:01:21;94366.50;;;8.80;100.00
6833;BME280;3454;42.654;23.378;2022-12-07T10:03:53;94368.41;;;8.87;100.00
6833;BME280;3454;42.654;23.378;2022-12-07T10:06:19;94376.09;;;9.06;100.00
6833;BME280;3454;42.654;23.378;2022-12-07T10:08:44;94390.44;;;9.17;100.00
6833;BME280;3454;42.654;23.378;2022-12-07T10:11:11;94393.63;;;9.19;100.00
6833;BME280;3454;42.654;23.378;2022-12-07T10:13:44;94397.09;;;9.18;100.00
6833;BME280;3454;42.654;23.378;2022-12-07T10:18:54;94362.63;;;9.15;100.00
6833;BME280;3454;42.654;23.378;2022-12-07T10:21:22;94371.75;;;9.27;100.00
6833;BME280;3454;42.654;23.378;2022-12-07T10:24:01;94408.81;;;9.49;100.00
6833;BME280;3454;42.654;23.378;2022-12-07T10:31:42;94383.38;;;9.79;100.00
6833;BME280;3454;42.654;23.378;2022-12-07T10:34:36;94411.50;;;10.26;100.00
6833;BME280;3454;42.654;23.378;2022-12-07T10:42:30;94417.91;;;10.10;100.00
6833;BME280;3454;42.654;23.378;2022-12-07T10:53:22;94397.44;;;10.31;100.00
6833;BME280;3454;42.654;23.378;2022-12-07T11:01:41;94368.94;;;9.99;100.00
6833;BME280;3454;42.654;23.378;2022-12-07T11:04:18;94353.97;;;9.96;100.00
6833;BME280;3454;42.654;23.378;2022-12-07T11:07:00;94314.81;;;9.98;100.00
6833;BME280;3454;42.654;23.378;2022-12-07T11:09:54;94316.00;;;10.04;100.00
6833;BME280;3454;42.654;23.378;2022-12-07T11:15:18;94319.25;;;10.16;100.00
6833;BME280;3454;42.654;23.378;2022-12-07T11:20:44;94351.44;;;10.25;100.00
6833;BME280;3454;42.654;23.378;2022-12-07T11:36:47;94281.84;;;9.79;100.00
6833;BME280;3454;42.654;23.378;2022-12-07T11:39:50;94304.41;;;10.01;100.00
6833;BME280;3454;42.654;23.378;2022-12-07T11:42:30;94315.22;;;10.03;100.00
6833;BME280;3454;42.654;23.378;2022-12-07T11:45:15;94295.44;;;9.88;100.00
6833;BME280;3454;42.654;23.378;2022-12-07T11:47:54;94266.19;;;9.74;100.00
6833;BME280;3454;42.654;23.378;2022-12-07T11:53:03;94308.38;;;10.04;100.00
6833;BME280;3454;42.654;23.378;2022-12-07T12:06:36;94288.91;;;10.24;100.00
6833;BME280;3454;42.654;23.378;2022-12-07T12:09:25;94269.38;;;10.14;100.00
6833;BME280;3454;42.654;23.378;2022-12-07T12:22:47;94307.16;;;10.37;100.00
6833;BME280;3454;42.654;23.378;2022-12-07T12:25:25;94272.38;;;10.56;100.00
6833;BME280;3454;42.654;23.378;2022-12-07T12:27:55;94309.03;;;10.81;100.00
6833;BME280;3454;42.654;23.378;2022-12-07T12:30:33;94332.72;;;11.18;100.00
6833;BME280;3454;42.654;23.378;2022-12-07T12:33:41;94336.47;;;11.41;100.00
6833;BME280;3454;42.654;23.378;2022-12-07T12:47:00;94278.91;;;11.13;100.00
6833;BME280;3454;42.654;23.378;2022-12-07T12:54:59;94340.16;;;11.56;100.00
6833;BME280;3454;42.654;23.378;2022-12-07T12:57:28;94354.81;;;11.72;100.00
6833;BME280;3454;42.654;23.378;2022-12-07T13:21:43;94396.69;;;12.40;100.00
6833;BME280;3454;42.654;23.378;2022-12-07T13:31:46;94370.03;;;12.17;100.00
6833;BME280;3454;42.654;23.378;2022-12-07T13:36:57;94355.13;;;11.87;100.00
6833;BME280;3454;42.654;23.378;2022-12-07T13:39:25;94327.59;;;11.72;100.00
6833;BME280;3454;42.654;23.378;2022-12-07T13:42:06;94322.91;;;11.77;100.00
6833;BME280;3454;42.654;23.378;2022-12-07T13:44:38;94306.66;;;11.78;100.00
6833;BME280;3454;42.654;23.378;2022-12-07T13:47:22;94302.06;;;12.00;100.00
6833;BME280;3454;42.654;23.378;2022-12-07T13:49:53;94326.59;;;11.83;100.00
6833;BME280;3454;42.654;23.378;2022-12-07T13:57:29;94234.97;;;11.38;100.00
6833;BME280;3454;42.654;23.378;2022-12-07T14:00:04;94236.88;;;11.36;100.00
6833;BME280;3454;42.654;23.378;2022-12-07T14:02:32;94226.84;;;11.35;100.00
6833;BME280;3454;42.654;23.378;2022-12-07T14:05:14;94209.28;;;11.14;100.00
6833;BME280;3454;42.654;23.378;2022-12-07T14:10:35;94174.94;;;10.65;100.00
6833;BME280;3454;42.654;23.378;2022-12-07T14:13:02;94168.69;;;10.60;100.00
6833;BME280;3454;42.654;23.378;2022-12-07T14:15:33;94154.81;;;10.72;100.00
6833;BME280;3454;42.654;23.378;2022-12-07T14:18:00;94183.38;;;10.83;100.00
6833;BME280;3454;42.654;23.378;2022-12-07T14:20:29;94197.25;;;10.89;100.00
6833;BME280;3454;42.654;23.378;2022-12-07T14:22:56;94181.34;;;10.87;100.00
6833;BME280;3454;42.654;23.378;2022-12-07T14:25:23;94210.06;;;10.97;100.00
6833;BME280;3454;42.654;23.378;2022-12-07T14:27:55;94208.53;;;10.86;100.00
6833;BME280;3454;42.654;23.378;2022-12-07T14:30:23;94193.31;;;10.77;100.00
6833;BME280;3454;42.654;23.378;2022-12-07T14:32:53;94181.47;;;10.68;100.00
6833;BME280;3454;42.654;23.378;2022-12-07T14:35:19;94171.72;;;10.63;100.00
6833;BME280;3454;42.654;23.378;2022-12-07T14:37:47;94171.06;;;10.61;100.00
6833;BME280;3454;42.654;23.378;2022-12-07T14:40:17;94169.34;;;10.62;100.00
6833;BME280;3454;42.654;23.378;2022-12-07T14:42:45;94169.09;;;10.55;100.00
6833;BME280;3454;42.654;23.378;2022-12-07T14:45:14;94155.50;;;10.47;100.00
6833;BME280;3454;42.654;23.378;2022-12-07T14:47:40;94136.03;;;10.38;100.00
6833;BME280;3454;42.654;23.378;2022-12-07T14:50:06;94154.97;;;10.43;100.00
6833;BME280;3454;42.654;23.378;2022-12-07T14:52:32;94149.53;;;10.38;100.00
6833;BME280;3454;42.654;23.378;2022-12-07T14:54:58;94153.81;;;10.38;100.00
6833;BME280;3454;42.654;23.378;2022-12-07T14:57:23;94144.88;;;10.34;100.00
6833;BME280;3454;42.654;23.378;2022-12-07T14:59:49;94137.72;;;10.20;100.00
6833;BME280;3454;42.654;23.378;2022-12-07T15:02:16;94130.00;;;10.11;100.00
6833;BME280;3454;42.654;23.378;2022-12-07T15:04:41;94138.28;;;10.13;100.00
6833;BME280;3454;42.654;23.378;2022-12-07T15:07:15;94141.59;;;10.14;100.00
6833;BME280;3454;42.654;23.378;2022-12-07T15:09:42;94158.59;;;10.13;100.00
6833;BME280;3454;42.654;23.378;2022-12-07T15:12:07;94150.69;;;10.44;100.00
6833;BME280;3454;42.654;23.378;2022-12-07T15:14:33;94170.53;;;10.40;100.00
6833;BME280;3454;42.654;23.378;2022-12-07T15:16:58;94179.88;;;10.40;100.00
6833;BME280;3454;42.654;23.378;2022-12-07T15:19:25;94152.28;;;10.18;100.00
6833;BME280;3454;42.654;23.378;2022-12-07T15:21:52;94144.81;;;10.06;100.00
6833;BME280;3454;42.654;23.378;2022-12-07T15:24:18;94136.41;;;9.96;100.00
6833;BME280;3454;42.654;23.378;2022-12-07T15:26:44;94130.31;;;9.89;100.00
6833;BME280;3454;42.654;23.378;2022-12-07T15:29:10;94112.44;;;9.81;100.00
6833;BME280;3454;42.654;23.378;2022-12-07T15:31:36;94106.03;;;9.77;100.00
6833;BME280;3454;42.654;23.378;2022-12-07T15:34:03;94116.44;;;9.74;100.00
6833;BME280;3454;42.654;23.378;2022-12-07T15:36:31;94131.09;;;9.90;100.00
6833;BME280;3454;42.654;23.378;2022-12-07T15:38:57;94160.19;;;10.05;100.00
6833;BME280;3454;42.654;23.378;2022-12-07T15:41:23;94149.00;;;9.88;100.00
6833;BME280;3454;42.654;23.378;2022-12-07T15:43:49;94129.13;;;9.74;100.00
6833;BME280;3454;42.654;23.378;2022-12-07T15:46:35;94116.94;;;9.41;100.00
6833;BME280;3454;42.654;23.378;2022-12-07T15:49:02;94108.00;;;9.27;100.00
6833;BME280;3454;42.654;23.378;2022-12-07T15:51:28;94098.66;;;9.28;100.00